Terminal Aerodrome Forecast
Issued by NWS Charleston, WV

Current Version | Previous Version | Text Only | Print | Product List | Glossary Off
Versions: 1 2 3 4 5 6 7 8 9 10 11 12 13 14 15 16 17 18 19 20 21 22 23 24 25 26 27 28 29 30 31

000
FTUS41 KRLX 181732
TAFEKN
TAF
KEKN 181732Z 1818/1918 21014G24KT P6SM OVC060
     FM190000 20012G20KT P6SM OVC040
      TEMPO 1901/1903 4SM SHRA OVC025
     FM190300 21015G26KT 4SM SHRA OVC040
     FM190500 21012G20KT 3SM SHRA OVC025
     FM190700 20018G35KT P6SM SHRA OVC015
     FM190800 27016G27KT P6SM SHRA OVC015
     FM191100 29016G27KT P6SM OVC015=

USA.gov is the U.S. government's official web portal to all federal, state and local government web resources and services.